YBBN/BNE METAR and TAF weather

Enter ICAO airport designator
Station Type Date Time Source
YBBN METAR 2021/03/02 16:30 UTC NOAA

YBBN 021630Z 12007KT 9999 VCSH FEW008 SCT020 BKN040 23/21 Q1009


Station Type Date Time Source
YBBN Decoded METAR 2021/03/02 16:30 UTC NOAA

Brisbane Airport M. O, Australia (YBBN) 27-23S 153-06E 5M
Mar 02, 2021 - 11:30 AM EST / 2021.03.02 1630 UTC
Wind: from the ESE (120 degrees) at 8 MPH (7 KT):0
Visibility: greater than 7 mile(s):0
Sky conditions: mostly cloudy
Weather: showers in the vicinity
Temperature: 73 F (23 C)
Dew Point: 69 F (21 C)
Relative Humidity: 88%
Pressure (altimeter): 29.80 in. Hg (1009 hPa)
ob: YBBN 021630Z 12007KT 9999 VCSH FEW008 SCT020 BKN040 23/21 Q1009
cycle: 16

Station Type Date Time Source
YBBN TAF 2021/03/02 15:36 UTC NOAA

TAF YBBN 021412Z 0215/0318 16008KT 9999 -SHRA SCT020 BKN040
FM022300 13012KT 9999 NSW FEW025 BKN045
FM031400 19008KT 9999 FEW020 SCT040 INTER 0215/0221 3000 SHRA SCT012

Example: see airport list